sensor_id;sensor_type;location;lat;lon;timestamp;pressure;altitude;pressure_sealevel;temperature;humidity
6615;BME280;3343;42.896;23.912;2023-02-13T00:00:06;98304.22;;;4.48;77.51
6615;BME280;3343;42.896;23.912;2023-02-13T00:02:33;98307.44;;;4.01;80.00
6615;BME280;3343;42.896;23.912;2023-02-13T00:05:00;98304.63;;;4.16;79.34
6615;BME280;3343;42.896;23.912;2023-02-13T00:07:27;98308.19;;;4.41;77.83
6615;BME280;3343;42.896;23.912;2023-02-13T00:09:54;98313.50;;;4.39;77.52
6615;BME280;3343;42.896;23.912;2023-02-13T00:12:21;98322.16;;;4.53;77.45
6615;BME280;3343;42.896;23.912;2023-02-13T00:14:48;98321.22;;;4.54;77.80
6615;BME280;3343;42.896;23.912;2023-02-13T00:17:16;98317.16;;;4.50;77.74
6615;BME280;3343;42.896;23.912;2023-02-13T00:19:43;98305.88;;;4.24;77.88
6615;BME280;3343;42.896;23.912;2023-02-13T00:22:09;98320.06;;;4.45;77.52
6615;BME280;3343;42.896;23.912;2023-02-13T00:24:36;98317.88;;;4.52;76.91
6615;BME280;3343;42.896;23.912;2023-02-13T00:27:03;98325.88;;;4.74;76.50
6615;BME280;3343;42.896;23.912;2023-02-13T00:29:30;98326.09;;;4.71;76.29
6615;BME280;3343;42.896;23.912;2023-02-13T00:31:57;98329.22;;;4.76;76.29
6615;BME280;3343;42.896;23.912;2023-02-13T00:34:25;98328.16;;;4.78;75.93
6615;BME280;3343;42.896;23.912;2023-02-13T00:36:52;98332.59;;;4.53;76.76
6615;BME280;3343;42.896;23.912;2023-02-13T00:39:19;98328.16;;;4.78;75.76
6615;BME280;3343;42.896;23.912;2023-02-13T00:41:46;98333.09;;;4.58;76.29
6615;BME280;3343;42.896;23.912;2023-02-13T00:44:13;98327.38;;;4.53;76.73
6615;BME280;3343;42.896;23.912;2023-02-13T00:46:40;98328.94;;;4.55;76.37
6615;BME280;3343;42.896;23.912;2023-02-13T00:49:07;98331.31;;;4.58;76.03
6615;BME280;3343;42.896;23.912;2023-02-13T00:51:35;98335.69;;;4.70;75.73
6615;BME280;3343;42.896;23.912;2023-02-13T00:54:02;98324.22;;;4.73;75.64
6615;BME280;3343;42.896;23.912;2023-02-13T00:56:29;98322.53;;;4.72;75.52
6615;BME280;3343;42.896;23.912;2023-02-13T00:58:56;98325.69;;;4.64;75.83
6615;BME280;3343;42.896;23.912;2023-02-13T01:01:23;98328.19;;;4.66;75.99
6615;BME280;3343;42.896;23.912;2023-02-13T01:03:51;98335.91;;;4.55;76.21
6615;BME280;3343;42.896;23.912;2023-02-13T01:06:17;98340.94;;;4.45;76.62
6615;BME280;3343;42.896;23.912;2023-02-13T01:08:46;98347.09;;;3.79;79.71
6615;BME280;3343;42.896;23.912;2023-02-13T01:11:13;98317.59;;;3.66;80.20
6615;BME280;3343;42.896;23.912;2023-02-13T01:13:40;98347.84;;;3.27;82.55
6615;BME280;3343;42.896;23.912;2023-02-13T01:16:06;98350.63;;;3.24;83.25
6615;BME280;3343;42.896;23.912;2023-02-13T01:18:33;98347.41;;;3.20;83.50
6615;BME280;3343;42.896;23.912;2023-02-13T01:21:02;98343.53;;;3.67;81.97
6615;BME280;3343;42.896;23.912;2023-02-13T01:23:30;98352.81;;;3.71;81.87
6615;BME280;3343;42.896;23.912;2023-02-13T01:25:59;98352.97;;;3.95;80.76
6615;BME280;3343;42.896;23.912;2023-02-13T01:28:26;98341.38;;;3.87;80.53
6615;BME280;3343;42.896;23.912;2023-02-13T01:30:53;98343.41;;;4.08;79.72
6615;BME280;3343;42.896;23.912;2023-02-13T01:33:21;98339.41;;;3.90;80.41
6615;BME280;3343;42.896;23.912;2023-02-13T01:35:48;98339.72;;;3.86;80.93
6615;BME280;3343;42.896;23.912;2023-02-13T01:38:15;98339.91;;;3.82;80.90
6615;BME280;3343;42.896;23.912;2023-02-13T01:40:45;98337.34;;;3.95;80.85
6615;BME280;3343;42.896;23.912;2023-02-13T01:43:14;98346.53;;;4.13;80.30
6615;BME280;3343;42.896;23.912;2023-02-13T01:45:42;98327.97;;;4.05;79.97
6615;BME280;3343;42.896;23.912;2023-02-13T01:48:14;98339.75;;;4.11;79.81
6615;BME280;3343;42.896;23.912;2023-02-13T01:50:45;98328.59;;;4.22;79.81
6615;BME280;3343;42.896;23.912;2023-02-13T01:53:18;98343.50;;;4.32;79.01
6615;BME280;3343;42.896;23.912;2023-02-13T01:55:49;98342.66;;;4.06;80.20
6615;BME280;3343;42.896;23.912;2023-02-13T01:58:20;98342.13;;;4.01;80.64
6615;BME280;3343;42.896;23.912;2023-02-13T02:00:48;98349.81;;;3.77;81.36
6615;BME280;3343;42.896;23.912;2023-02-13T02:03:18;98349.94;;;4.01;80.78
6615;BME280;3343;42.896;23.912;2023-02-13T02:05:50;98348.78;;;3.80;81.76
6615;BME280;3343;42.896;23.912;2023-02-13T02:08:18;98344.50;;;3.79;81.97
6615;BME280;3343;42.896;23.912;2023-02-13T02:10:45;98347.06;;;3.66;82.35
6615;BME280;3343;42.896;23.912;2023-02-13T02:13:15;98347.19;;;3.77;82.29
6615;BME280;3343;42.896;23.912;2023-02-13T02:15:44;98350.03;;;3.87;81.78
6615;BME280;3343;42.896;23.912;2023-02-13T02:18:13;98354.94;;;3.92;81.56
6615;BME280;3343;42.896;23.912;2023-02-13T02:21:06;98348.81;;;4.18;80.35
6615;BME280;3343;42.896;23.912;2023-02-13T02:30:02;98340.53;;;4.38;79.26
6615;BME280;3343;42.896;23.912;2023-02-13T02:32:43;98338.22;;;4.34;79.54
6615;BME280;3343;42.896;23.912;2023-02-13T02:35:21;98345.63;;;4.40;79.64
6615;BME280;3343;42.896;23.912;2023-02-13T02:38:04;98349.59;;;4.45;79.04
6615;BME280;3343;42.896;23.912;2023-02-13T02:40:38;98355.38;;;4.24;79.93
6615;BME280;3343;42.896;23.912;2023-02-13T02:43:16;98347.16;;;4.30;79.87
6615;BME280;3343;42.896;23.912;2023-02-13T02:45:52;98342.81;;;4.43;79.32
6615;BME280;3343;42.896;23.912;2023-02-13T02:48:27;98325.03;;;3.97;80.32
6615;BME280;3343;42.896;23.912;2023-02-13T02:51:19;98335.47;;;4.10;79.95
6615;BME280;3343;42.896;23.912;2023-02-13T02:53:56;98348.50;;;4.23;78.89
6615;BME280;3343;42.896;23.912;2023-02-13T02:56:30;98339.97;;;4.21;79.56
6615;BME280;3343;42.896;23.912;2023-02-13T02:59:02;98336.41;;;3.57;82.60
6615;BME280;3343;42.896;23.912;2023-02-13T03:01:47;98327.59;;;3.45;83.53
6615;BME280;3343;42.896;23.912;2023-02-13T03:04:37;98324.34;;;3.56;83.26
6615;BME280;3343;42.896;23.912;2023-02-13T03:07:23;98324.97;;;3.59;81.69
6615;BME280;3343;42.896;23.912;2023-02-13T03:09:51;98329.19;;;3.74;81.16
6615;BME280;3343;42.896;23.912;2023-02-13T03:12:40;98326.25;;;3.66;81.21
6615;BME280;3343;42.896;23.912;2023-02-13T03:15:28;98319.34;;;2.84;84.69
6615;BME280;3343;42.896;23.912;2023-02-13T03:17:56;98322.81;;;2.71;85.42
6615;BME280;3343;42.896;23.912;2023-02-13T03:20:45;98322.88;;;2.83;85.22
6615;BME280;3343;42.896;23.912;2023-02-13T03:23:40;98327.66;;;3.04;84.21
6615;BME280;3343;42.896;23.912;2023-02-13T03:26:37;98320.28;;;2.69;84.29
6615;BME280;3343;42.896;23.912;2023-02-13T03:29:30;98326.97;;;2.31;86.65
6615;BME280;3343;42.896;23.912;2023-02-13T03:32:22;98330.56;;;2.14;87.48
6615;BME280;3343;42.896;23.912;2023-02-13T03:34:59;98333.84;;;2.46;86.21
6615;BME280;3343;42.896;23.912;2023-02-13T03:37:51;98337.09;;;2.49;86.37
6615;BME280;3343;42.896;23.912;2023-02-13T03:40:28;98335.69;;;2.44;85.89
6615;BME280;3343;42.896;23.912;2023-02-13T03:43:03;98336.81;;;2.54;84.92
6615;BME280;3343;42.896;23.912;2023-02-13T03:45:36;98344.22;;;2.88;83.22
6615;BME280;3343;42.896;23.912;2023-02-13T03:48:24;98346.38;;;2.82;82.40
6615;BME280;3343;42.896;23.912;2023-02-13T03:51:12;98341.06;;;2.55;83.89
6615;BME280;3343;42.896;23.912;2023-02-13T03:53:44;98334.19;;;2.82;82.05
6615;BME280;3343;42.896;23.912;2023-02-13T03:56:15;98327.47;;;3.07;81.32
6615;BME280;3343;42.896;23.912;2023-02-13T03:59:03;98334.38;;;2.94;80.10
6615;BME280;3343;42.896;23.912;2023-02-13T04:01:47;98331.47;;;2.98;80.63
6615;BME280;3343;42.896;23.912;2023-02-13T04:04:21;98333.84;;;2.74;80.26
6615;BME280;3343;42.896;23.912;2023-02-13T04:06:51;98339.81;;;2.62;80.84
6615;BME280;3343;42.896;23.912;2023-02-13T04:09:23;98339.88;;;2.46;81.97
6615;BME280;3343;42.896;23.912;2023-02-13T04:11:55;98343.16;;;1.91;83.59
6615;BME280;3343;42.896;23.912;2023-02-13T04:14:26;98346.00;;;1.57;86.05
6615;BME280;3343;42.896;23.912;2023-02-13T04:16:57;98351.84;;;1.60;86.20
6615;BME280;3343;42.896;23.912;2023-02-13T04:19:28;98347.38;;;1.33;89.65
6615;BME280;3343;42.896;23.912;2023-02-13T04:21:56;98322.09;;;1.36;88.42
6615;BME280;3343;42.896;23.912;2023-02-13T04:24:26;98346.13;;;1.24;89.20
6615;BME280;3343;42.896;23.912;2023-02-13T04:26:54;98309.91;;;1.22;88.93
6615;BME280;3343;42.896;23.912;2023-02-13T04:29:22;98336.72;;;1.53;87.27
6615;BME280;3343;42.896;23.912;2023-02-13T04:31:49;98337.41;;;1.41;87.85
6615;BME280;3343;42.896;23.912;2023-02-13T04:34:17;98337.63;;;1.52;87.50
6615;BME280;3343;42.896;23.912;2023-02-13T04:36:44;98345.28;;;1.39;88.39
6615;BME280;3343;42.896;23.912;2023-02-13T04:39:11;98338.09;;;1.28;89.09
6615;BME280;3343;42.896;23.912;2023-02-13T04:41:39;98336.00;;;1.19;89.76
6615;BME280;3343;42.896;23.912;2023-02-13T04:44:06;98333.38;;;1.51;88.31
6615;BME280;3343;42.896;23.912;2023-02-13T04:46:33;98325.88;;;1.76;87.06
6615;BME280;3343;42.896;23.912;2023-02-13T04:49:00;98325.38;;;1.70;85.94
6615;BME280;3343;42.896;23.912;2023-02-13T04:51:27;98331.25;;;1.57;87.49
6615;BME280;3343;42.896;23.912;2023-02-13T04:53:54;98335.34;;;1.77;86.65
6615;BME280;3343;42.896;23.912;2023-02-13T04:56:21;98335.38;;;1.91;84.89
6615;BME280;3343;42.896;23.912;2023-02-13T04:58:49;98328.06;;;2.12;84.28
6615;BME280;3343;42.896;23.912;2023-02-13T05:01:16;98330.66;;;1.98;84.73
6615;BME280;3343;42.896;23.912;2023-02-13T05:03:43;98340.09;;;1.99;84.38
6615;BME280;3343;42.896;23.912;2023-02-13T05:06:10;98343.00;;;2.23;82.68
6615;BME280;3343;42.896;23.912;2023-02-13T05:08:37;98341.50;;;2.05;83.39
6615;BME280;3343;42.896;23.912;2023-02-13T05:11:04;98342.06;;;2.10;82.56
6615;BME280;3343;42.896;23.912;2023-02-13T05:13:31;98341.81;;;2.14;82.27
6615;BME280;3343;42.896;23.912;2023-02-13T05:16:00;98351.56;;;2.25;82.05
6615;BME280;3343;42.896;23.912;2023-02-13T05:18:27;98353.47;;;2.07;81.53
6615;BME280;3343;42.896;23.912;2023-02-13T05:20:54;98351.44;;;2.12;81.80
6615;BME280;3343;42.896;23.912;2023-02-13T05:23:50;98365.97;;;2.01;80.61
6615;BME280;3343;42.896;23.912;2023-02-13T05:26:17;98367.41;;;1.76;81.98
6615;BME280;3343;42.896;23.912;2023-02-13T05:28:44;98368.25;;;1.61;82.83
6615;BME280;3343;42.896;23.912;2023-02-13T05:31:29;98366.88;;;1.70;82.21
6615;BME280;3343;42.896;23.912;2023-02-13T05:33:56;98366.00;;;1.55;83.32
6615;BME280;3343;42.896;23.912;2023-02-13T05:36:23;98361.84;;;1.37;84.89
6615;BME280;3343;42.896;23.912;2023-02-13T05:38:50;98371.94;;;1.57;84.30
6615;BME280;3343;42.896;23.912;2023-02-13T05:41:17;98372.09;;;1.70;83.37
6615;BME280;3343;42.896;23.912;2023-02-13T05:43:44;98370.13;;;1.89;83.23
6615;BME280;3343;42.896;23.912;2023-02-13T05:46:11;98369.94;;;1.92;83.03
6615;BME280;3343;42.896;23.912;2023-02-13T05:48:40;98367.41;;;1.76;83.55
6615;BME280;3343;42.896;23.912;2023-02-13T05:51:07;98377.78;;;1.76;84.74
6615;BME280;3343;42.896;23.912;2023-02-13T05:53:33;98367.69;;;2.30;83.45
6615;BME280;3343;42.896;23.912;2023-02-13T05:56:01;98369.09;;;2.50;80.96
6615;BME280;3343;42.896;23.912;2023-02-13T05:58:28;98378.59;;;2.65;80.10
6615;BME280;3343;42.896;23.912;2023-02-13T06:00:56;98383.53;;;2.70;79.88
6615;BME280;3343;42.896;23.912;2023-02-13T06:03:24;98385.25;;;2.98;78.71
6615;BME280;3343;42.896;23.912;2023-02-13T06:05:52;98383.34;;;3.28;77.17
6615;BME280;3343;42.896;23.912;2023-02-13T06:08:20;98383.44;;;3.27;77.07
6615;BME280;3343;42.896;23.912;2023-02-13T06:10:47;98396.06;;;3.47;76.75
6615;BME280;3343;42.896;23.912;2023-02-13T06:13:15;98396.47;;;4.20;74.75
6615;BME280;3343;42.896;23.912;2023-02-13T06:15:43;98384.69;;;4.27;73.27
6615;BME280;3343;42.896;23.912;2023-02-13T06:18:10;98394.72;;;4.84;72.65
6615;BME280;3343;42.896;23.912;2023-02-13T06:20:37;98391.66;;;5.52;68.80
6615;BME280;3343;42.896;23.912;2023-02-13T06:23:06;98399.63;;;6.33;65.95
6615;BME280;3343;42.896;23.912;2023-02-13T06:25:33;98392.66;;;6.56;64.34
6615;BME280;3343;42.896;23.912;2023-02-13T06:28:01;98398.41;;;7.06;62.22
6615;BME280;3343;42.896;23.912;2023-02-13T06:30:29;98394.53;;;7.55;59.19
6615;BME280;3343;42.896;23.912;2023-02-13T06:32:57;98395.16;;;7.36;59.39
6615;BME280;3343;42.896;23.912;2023-02-13T06:35:24;98398.75;;;7.13;58.89
6615;BME280;3343;42.896;23.912;2023-02-13T06:37:51;98391.38;;;7.18;60.29
6615;BME280;3343;42.896;23.912;2023-02-13T06:40:19;98389.09;;;7.24;59.56
6615;BME280;3343;42.896;23.912;2023-02-13T06:42:46;98399.69;;;7.23;59.51
6615;BME280;3343;42.896;23.912;2023-02-13T06:45:13;98412.69;;;7.79;56.86
6615;BME280;3343;42.896;23.912;2023-02-13T06:47:41;98405.59;;;8.22;56.83
6615;BME280;3343;42.896;23.912;2023-02-13T06:50:09;98402.19;;;8.63;54.55
6615;BME280;3343;42.896;23.912;2023-02-13T06:52:36;98399.03;;;8.90;52.86
6615;BME280;3343;42.896;23.912;2023-02-13T06:55:04;98404.09;;;9.13;52.07
6615;BME280;3343;42.896;23.912;2023-02-13T06:57:33;98409.16;;;9.35;51.20
6615;BME280;3343;42.896;23.912;2023-02-13T07:00:00;98404.25;;;9.21;51.82
6615;BME280;3343;42.896;23.912;2023-02-13T07:02:30;98404.44;;;8.99;51.54
6615;BME280;3343;42.896;23.912;2023-02-13T07:04:57;98408.31;;;8.94;51.72
6615;BME280;3343;42.896;23.912;2023-02-13T07:07:24;98413.59;;;8.74;52.14
6615;BME280;3343;42.896;23.912;2023-02-13T07:09:51;98411.16;;;8.40;53.04
6615;BME280;3343;42.896;23.912;2023-02-13T07:12:18;98411.88;;;8.10;54.78
6615;BME280;3343;42.896;23.912;2023-02-13T07:14:46;98421.53;;;8.30;54.42
6615;BME280;3343;42.896;23.912;2023-02-13T07:17:13;98424.34;;;8.50;53.56
6615;BME280;3343;42.896;23.912;2023-02-13T07:19:40;98413.72;;;8.72;52.94
6615;BME280;3343;42.896;23.912;2023-02-13T07:22:06;98414.97;;;8.99;52.09
6615;BME280;3343;42.896;23.912;2023-02-13T07:24:34;98423.34;;;9.23;51.41
6615;BME280;3343;42.896;23.912;2023-02-13T07:27:03;98417.81;;;9.26;50.47
6615;BME280;3343;42.896;23.912;2023-02-13T07:29:29;98418.06;;;9.13;51.68
6615;BME280;3343;42.896;23.912;2023-02-13T07:31:58;98413.28;;;8.98;52.10
6615;BME280;3343;42.896;23.912;2023-02-13T07:34:26;98407.06;;;8.68;53.20
6615;BME280;3343;42.896;23.912;2023-02-13T07:36:52;98411.38;;;8.16;54.40
6615;BME280;3343;42.896;23.912;2023-02-13T07:39:19;98407.91;;;8.16;55.11
6615;BME280;3343;42.896;23.912;2023-02-13T07:41:46;98403.47;;;8.69;54.65
6615;BME280;3343;42.896;23.912;2023-02-13T07:44:13;98396.44;;;9.00;51.60
6615;BME280;3343;42.896;23.912;2023-02-13T07:46:40;98395.16;;;9.35;51.14
6615;BME280;3343;42.896;23.912;2023-02-13T07:49:08;98399.44;;;9.95;49.48
6615;BME280;3343;42.896;23.912;2023-02-13T07:51:35;98404.88;;;10.23;47.45
6615;BME280;3343;42.896;23.912;2023-02-13T07:54:02;98399.19;;;10.37;46.28
6615;BME280;3343;42.896;23.912;2023-02-13T07:56:29;98400.00;;;10.57;46.10
6615;BME280;3343;42.896;23.912;2023-02-13T07:58:56;98396.09;;;10.70;46.54
6615;BME280;3343;42.896;23.912;2023-02-13T08:01:23;98398.09;;;10.96;45.20
6615;BME280;3343;42.896;23.912;2023-02-13T08:03:50;98400.63;;;10.88;44.03
6615;BME280;3343;42.896;23.912;2023-02-13T08:06:19;98397.38;;;11.03;44.26
6615;BME280;3343;42.896;23.912;2023-02-13T08:08:46;98398.19;;;11.04;44.19
6615;BME280;3343;42.896;23.912;2023-02-13T08:11:22;98395.00;;;11.37;43.75
6615;BME280;3343;42.896;23.912;2023-02-13T08:14:07;98390.91;;;11.53;43.91
6615;BME280;3343;42.896;23.912;2023-02-13T08:16:33;98397.72;;;11.73;43.18
6615;BME280;3343;42.896;23.912;2023-02-13T08:19:00;98398.88;;;12.06;41.50
6615;BME280;3343;42.896;23.912;2023-02-13T08:21:29;98403.88;;;11.91;41.38
6615;BME280;3343;42.896;23.912;2023-02-13T08:23:56;98390.63;;;11.73;42.98
6615;BME280;3343;42.896;23.912;2023-02-13T08:26:23;98382.84;;;12.17;42.63
6615;BME280;3343;42.896;23.912;2023-02-13T08:28:50;98388.91;;;12.79;41.06
6615;BME280;3343;42.896;23.912;2023-02-13T08:31:17;98393.97;;;12.72;40.54
6615;BME280;3343;42.896;23.912;2023-02-13T08:33:44;98392.72;;;12.85;40.71
6615;BME280;3343;42.896;23.912;2023-02-13T08:36:10;98394.31;;;12.26;41.00
6615;BME280;3343;42.896;23.912;2023-02-13T08:38:39;98384.19;;;12.21;42.04
6615;BME280;3343;42.896;23.912;2023-02-13T08:41:06;98382.63;;;12.54;42.26
6615;BME280;3343;42.896;23.912;2023-02-13T08:43:32;98385.31;;;12.88;41.14
6615;BME280;3343;42.896;23.912;2023-02-13T08:45:59;98391.56;;;13.05;40.36
6615;BME280;3343;42.896;23.912;2023-02-13T08:48:26;98388.25;;;13.03;39.79
6615;BME280;3343;42.896;23.912;2023-02-13T08:50:53;98385.53;;;12.95;41.00
6615;BME280;3343;42.896;23.912;2023-02-13T08:53:20;98382.34;;;13.51;38.74
6615;BME280;3343;42.896;23.912;2023-02-13T08:55:52;98389.44;;;13.43;39.01
6615;BME280;3343;42.896;23.912;2023-02-13T08:58:19;98384.19;;;13.67;38.65
6615;BME280;3343;42.896;23.912;2023-02-13T09:00:46;98389.28;;;13.52;38.80
6615;BME280;3343;42.896;23.912;2023-02-13T09:03:13;98378.91;;;13.67;38.55
6615;BME280;3343;42.896;23.912;2023-02-13T09:05:40;98376.53;;;13.39;39.24
6615;BME280;3343;42.896;23.912;2023-02-13T09:08:07;98385.06;;;13.76;37.98
6615;BME280;3343;42.896;23.912;2023-02-13T09:10:36;98383.56;;;13.81;38.02
6615;BME280;3343;42.896;23.912;2023-02-13T09:13:05;98386.59;;;13.94;38.14
6615;BME280;3343;42.896;23.912;2023-02-13T09:15:32;98381.81;;;13.39;37.15
6615;BME280;3343;42.896;23.912;2023-02-13T09:17:59;98379.72;;;12.39;39.80
6615;BME280;3343;42.896;23.912;2023-02-13T09:20:26;98386.38;;;12.08;42.03
6615;BME280;3343;42.896;23.912;2023-02-13T09:22:54;98382.75;;;12.70;41.21
6615;BME280;3343;42.896;23.912;2023-02-13T09:25:22;98368.38;;;12.47;39.39
6615;BME280;3343;42.896;23.912;2023-02-13T09:27:48;98366.44;;;12.49;39.19
6615;BME280;3343;42.896;23.912;2023-02-13T09:30:17;98371.16;;;12.97;39.14
6615;BME280;3343;42.896;23.912;2023-02-13T09:32:48;98368.75;;;12.78;39.38
6615;BME280;3343;42.896;23.912;2023-02-13T09:35:15;98359.25;;;13.19;38.15
6615;BME280;3343;42.896;23.912;2023-02-13T09:37:42;98365.31;;;13.46;38.68
6615;BME280;3343;42.896;23.912;2023-02-13T09:40:16;98360.56;;;13.65;36.58
6615;BME280;3343;42.896;23.912;2023-02-13T09:42:44;98355.53;;;13.46;36.52
6615;BME280;3343;42.896;23.912;2023-02-13T09:45:13;98343.41;;;13.19;37.61
6615;BME280;3343;42.896;23.912;2023-02-13T09:47:43;98348.50;;;13.71;35.95
6615;BME280;3343;42.896;23.912;2023-02-13T09:50:15;98343.16;;;13.55;36.57
6615;BME280;3343;42.896;23.912;2023-02-13T09:52:44;98332.13;;;13.67;37.35
6615;BME280;3343;42.896;23.912;2023-02-13T09:55:16;98338.22;;;13.60;34.90
6615;BME280;3343;42.896;23.912;2023-02-13T09:57:47;98328.16;;;13.80;36.20
6615;BME280;3343;42.896;23.912;2023-02-13T10:00:19;98326.00;;;13.67;35.42
6615;BME280;3343;42.896;23.912;2023-02-13T10:03:13;98315.22;;;13.44;36.48
6615;BME280;3343;42.896;23.912;2023-02-13T10:05:49;98326.50;;;13.79;35.89
6615;BME280;3343;42.896;23.912;2023-02-13T10:08:30;98313.13;;;14.37;34.38
6615;BME280;3343;42.896;23.912;2023-02-13T10:11:06;98307.84;;;14.45;34.18
6615;BME280;3343;42.896;23.912;2023-02-13T10:13:46;98312.81;;;13.99;34.65
6615;BME280;3343;42.896;23.912;2023-02-13T10:16:16;98301.91;;;14.02;34.61
6615;BME280;3343;42.896;23.912;2023-02-13T10:18:49;98295.09;;;13.84;34.71
6615;BME280;3343;42.896;23.912;2023-02-13T10:21:20;98288.00;;;14.09;35.68
6615;BME280;3343;42.896;23.912;2023-02-13T10:23:55;98281.19;;;14.22;34.84
6615;BME280;3343;42.896;23.912;2023-02-13T10:26:25;98290.63;;;13.76;35.61
6615;BME280;3343;42.896;23.912;2023-02-13T10:29:10;98284.31;;;13.77;35.70
6615;BME280;3343;42.896;23.912;2023-02-13T10:31:59;98269.41;;;14.41;35.77
6615;BME280;3343;42.896;23.912;2023-02-13T10:34:33;98264.06;;;14.65;35.32
6615;BME280;3343;42.896;23.912;2023-02-13T10:37:02;98261.31;;;14.34;34.78
6615;BME280;3343;42.896;23.912;2023-02-13T10:39:30;98263.50;;;14.15;35.18
6615;BME280;3343;42.896;23.912;2023-02-13T10:42:05;98251.22;;;14.22;35.97
6615;BME280;3343;42.896;23.912;2023-02-13T10:44:47;98256.19;;;14.33;34.77
6615;BME280;3343;42.896;23.912;2023-02-13T10:47:29;98258.31;;;14.46;34.87
6615;BME280;3343;42.896;23.912;2023-02-13T10:50:13;98255.84;;;14.28;34.34
6615;BME280;3343;42.896;23.912;2023-02-13T10:52:48;98253.56;;;14.17;35.32
6615;BME280;3343;42.896;23.912;2023-02-13T10:55:38;98252.88;;;14.23;35.63
6615;BME280;3343;42.896;23.912;2023-02-13T10:58:15;98248.88;;;14.35;35.34
6615;BME280;3343;42.896;23.912;2023-02-13T11:00:45;98249.72;;;14.44;34.66
6615;BME280;3343;42.896;23.912;2023-02-13T11:03:18;98248.09;;;14.18;35.64
6615;BME280;3343;42.896;23.912;2023-02-13T11:05:47;98244.31;;;14.05;36.54
6615;BME280;3343;42.896;23.912;2023-02-13T11:08:18;98241.63;;;14.29;35.53
6615;BME280;3343;42.896;23.912;2023-02-13T11:10:46;98228.53;;;14.35;34.58
6615;BME280;3343;42.896;23.912;2023-02-13T11:13:16;98224.28;;;13.86;34.43
6615;BME280;3343;42.896;23.912;2023-02-13T11:15:55;98218.50;;;13.82;35.75
6615;BME280;3343;42.896;23.912;2023-02-13T11:18:24;98223.09;;;14.21;34.80
6615;BME280;3343;42.896;23.912;2023-02-13T11:21:00;98222.06;;;14.38;34.27
6615;BME280;3343;42.896;23.912;2023-02-13T11:23:34;98211.16;;;14.33;34.42
6615;BME280;3343;42.896;23.912;2023-02-13T11:26:04;98216.91;;;14.53;33.44
6615;BME280;3343;42.896;23.912;2023-02-13T11:28:36;98208.72;;;14.79;33.16
6615;BME280;3343;42.896;23.912;2023-02-13T11:31:31;98195.91;;;15.13;31.85
6615;BME280;3343;42.896;23.912;2023-02-13T11:34:16;98195.97;;;15.05;31.90
6615;BME280;3343;42.896;23.912;2023-02-13T11:36:50;98196.41;;;14.86;32.87
6615;BME280;3343;42.896;23.912;2023-02-13T11:39:19;98184.41;;;14.98;33.06
6615;BME280;3343;42.896;23.912;2023-02-13T11:41:47;98195.44;;;15.10;32.03
6615;BME280;3343;42.896;23.912;2023-02-13T11:44:20;98186.50;;;14.80;32.07
6615;BME280;3343;42.896;23.912;2023-02-13T11:46:51;98183.59;;;14.97;31.70
6615;BME280;3343;42.896;23.912;2023-02-13T11:49:20;98184.06;;;14.62;32.04
6615;BME280;3343;42.896;23.912;2023-02-13T11:51:50;98188.03;;;14.74;31.87
6615;BME280;3343;42.896;23.912;2023-02-13T11:54:24;98170.19;;;14.60;32.34
6615;BME280;3343;42.896;23.912;2023-02-13T11:56:54;98175.50;;;14.91;32.06
6615;BME280;3343;42.896;23.912;2023-02-13T11:59:22;98171.47;;;14.64;31.20
6615;BME280;3343;42.896;23.912;2023-02-13T12:02:02;98171.75;;;15.08;31.51
6615;BME280;3343;42.896;23.912;2023-02-13T12:04:29;98163.16;;;15.06;32.71
6615;BME280;3343;42.896;23.912;2023-02-13T12:07:02;98165.28;;;15.11;31.99
6615;BME280;3343;42.896;23.912;2023-02-13T12:09:30;98144.13;;;15.03;31.14
6615;BME280;3343;42.896;23.912;2023-02-13T12:11:59;98157.84;;;15.06;31.41
6615;BME280;3343;42.896;23.912;2023-02-13T12:14:30;98155.00;;;14.85;31.21
6615;BME280;3343;42.896;23.912;2023-02-13T12:17:03;98149.13;;;14.97;31.14
6615;BME280;3343;42.896;23.912;2023-02-13T12:19:35;98139.34;;;15.21;31.09
6615;BME280;3343;42.896;23.912;2023-02-13T12:22:27;98144.47;;;15.22;31.99
6615;BME280;3343;42.896;23.912;2023-02-13T12:25:12;98144.75;;;15.27;31.55
6615;BME280;3343;42.896;23.912;2023-02-13T12:27:45;98136.97;;;15.26;31.30
6615;BME280;3343;42.896;23.912;2023-02-13T12:36:30;98129.84;;;15.26;30.78
6615;BME280;3343;42.896;23.912;2023-02-13T12:39:14;98123.97;;;15.16;31.35
6615;BME280;3343;42.896;23.912;2023-02-13T12:41:50;98119.00;;;15.36;30.98
6615;BME280;3343;42.896;23.912;2023-02-13T12:44:55;98119.00;;;15.36;31.15
6615;BME280;3343;42.896;23.912;2023-02-13T12:47:28;98119.31;;;15.56;30.81
6615;BME280;3343;42.896;23.912;2023-02-13T12:50:20;98116.28;;;15.67;30.36
6615;BME280;3343;42.896;23.912;2023-02-13T12:53:06;98114.16;;;15.63;30.90
6615;BME280;3343;42.896;23.912;2023-02-13T13:02:33;98099.88;;;14.80;30.89
6615;BME280;3343;42.896;23.912;2023-02-13T13:05:40;98102.63;;;14.87;30.70
6615;BME280;3343;42.896;23.912;2023-02-13T13:08:23;98096.91;;;14.44;31.79
6615;BME280;3343;42.896;23.912;2023-02-13T13:11:05;98093.47;;;14.66;32.09
6615;BME280;3343;42.896;23.912;2023-02-13T13:17:03;98085.38;;;14.91;32.12
6615;BME280;3343;42.896;23.912;2023-02-13T13:30:32;98081.84;;;14.45;32.82
6615;BME280;3343;42.896;23.912;2023-02-13T13:32:54;98075.72;;;14.36;32.99
6615;BME280;3343;42.896;23.912;2023-02-13T13:39:15;98076.38;;;14.46;32.57
6615;BME280;3343;42.896;23.912;2023-02-13T13:41:51;98074.53;;;14.47;33.25
6615;BME280;3343;42.896;23.912;2023-02-13T13:48:15;98070.81;;;14.25;33.48
6615;BME280;3343;42.896;23.912;2023-02-13T13:51:01;98070.28;;;13.98;33.74
6615;BME280;3343;42.896;23.912;2023-02-13T13:53:38;98073.22;;;14.03;33.52
6615;BME280;3343;42.896;23.912;2023-02-13T13:57:09;98065.00;;;13.90;32.78
6615;BME280;3343;42.896;23.912;2023-02-13T14:10:05;98051.91;;;13.42;34.63
6615;BME280;3343;42.896;23.912;2023-02-13T14:12:58;98040.38;;;13.18;33.80
6615;BME280;3343;42.896;23.912;2023-02-13T14:15:48;98054.91;;;13.22;33.37
6615;BME280;3343;42.896;23.912;2023-02-13T14:18:20;98049.25;;;13.01;35.26
6615;BME280;3343;42.896;23.912;2023-02-13T14:20:51;98048.78;;;13.05;35.64
6615;BME280;3343;42.896;23.912;2023-02-13T14:23:47;98042.66;;;13.13;35.51
6615;BME280;3343;42.896;23.912;2023-02-13T14:26:48;98047.25;;;12.87;35.83
6615;BME280;3343;42.896;23.912;2023-02-13T14:32:44;98050.44;;;12.16;39.67
6615;BME280;3343;42.896;23.912;2023-02-13T14:35:17;98049.78;;;11.79;40.40
6615;BME280;3343;42.896;23.912;2023-02-13T14:37:51;98040.19;;;11.27;43.08